Dyersburg, TN

10:26 AM CDT on April 27, 2017 (GMT -0500)
Dyersburg Municipal

Weather History for KDYR - June, 2012

Change the Weather History Date:

Friday, June 29, 2012

  Actual Average Record
Temperature  
Mean Temperature 88 °F -  
Max Temperature 102 °F 85 °F 102 °F (2012)
Min Temperature 75 °F 67 °F 64 °F (2000)
Cooling Degree Days 24    
Growing Degree Days 38 (Base 50)    
Moisture  
Dew Point 65 °F    
Average Humidity 48    
Maximum Humidity 69    
Minimum Humidity 31    
Precipitation  
Precipitation 0.00 in - - ()
Sea Level Pressure  
Sea Level Pressure 29.92 in    
Wind  
Wind Speed 5 mph (WSW)    
Max Wind Speed 10 mph    
Max Gust Speed -    
Visibility 10 miles    
Events      
Averages and records for this station are not official NWS values.
T = Trace of Precipitation, MM = Missing Value Source: NWS Daily Summary

Daily Weather History Graph

Daily Weather History Graph

Search for Another Location

Airport or City:

Trip Planner

Search our weather history database for the weather conditions in past years. The results will help you decide how hot, cold, wet, or windy it might be!

Date:

Astronomy

Jun. 29, 2012 Rise Set
Actual Time 5:43 AM CDT 8:18 PM CDT
Civil Twilight 5:13 AM CDT 8:48 PM CDT
Nautical Twilight 4:36 AM CDT 9:25 PM CDT
Astronomical Twilight 3:54 AM CDT 10:07 PM CDT
Moon 4:07 PM CDT (6/29) 1:50 AM CDT (6/29)
Length of Visible Light 15h 34m
Length of Day
14h 34m
Waxing Gibbous, 78% of the Moon is Illuminated
Jun 29
Waxing Gibbous
Jul 3
Full
Jul 10
Last Quarter
Jul 18
New
Jul 26
First Quarter

Hourly Weather History & Observations

Time (CDT) Temp. Heat Index Dew Point Humidity Pressure Visibility Wind Dir Wind Speed Gust Speed Precip Events Conditions
12:15 AM 78.8 °F - 62.6 °F 57% 29.97 in 10.0 mi Calm Calm - N/A   Clear
12:35 AM 77.0 °F - 62.6 °F 61% 29.97 in 10.0 mi Calm Calm - N/A   Clear
12:55 AM 77.0 °F - 62.6 °F 61% 29.96 in 10.0 mi WSW 4.6 mph - N/A   Clear
1:15 AM 78.8 °F - 62.6 °F 57% 29.96 in 10.0 mi WSW 4.6 mph - N/A   Clear
1:35 AM 78.8 °F - 62.6 °F 57% 29.96 in 10.0 mi WSW 3.5 mph - N/A   Clear
1:55 AM 78.8 °F - 62.6 °F 57% 29.96 in 10.0 mi West 3.5 mph - N/A   Clear
2:15 AM 77.0 °F - 62.6 °F 61% 29.96 in 10.0 mi WSW 3.5 mph - N/A   Clear
2:35 AM 78.8 °F - 62.6 °F 57% 29.95 in 10.0 mi SW 4.6 mph - N/A   Clear
2:55 AM 77.0 °F - 62.6 °F 61% 29.95 in 10.0 mi WSW 3.5 mph - N/A   Clear
3:15 AM 78.8 °F - 62.6 °F 57% 29.95 in 10.0 mi WSW 3.5 mph - N/A   Clear
3:35 AM 77.0 °F - 62.6 °F 61% 29.95 in 10.0 mi WSW 5.8 mph - N/A   Clear
3:55 AM 78.8 °F - 62.6 °F 57% 29.95 in 10.0 mi WSW 5.8 mph - N/A   Clear
4:15 AM 78.8 °F - 62.6 °F 57% 29.95 in 10.0 mi SW 6.9 mph - N/A   Clear
4:35 AM 78.8 °F - 62.6 °F 57% 29.95 in 10.0 mi WSW 6.9 mph - N/A   Clear
4:55 AM 77.0 °F - 62.6 °F 61% 29.95 in 10.0 mi WSW 5.8 mph - N/A   Clear
5:15 AM 77.0 °F - 62.6 °F 61% 29.95 in 10.0 mi WSW 4.6 mph - N/A   Clear
5:35 AM 77.0 °F - 62.6 °F 61% 29.96 in 10.0 mi WSW 4.6 mph - N/A   Clear
5:55 AM 75.2 °F - 62.6 °F 65% 29.96 in 10.0 mi WSW 4.6 mph - N/A   Clear
6:15 AM 75.2 °F - 64.4 °F 69% 29.96 in 10.0 mi WSW 4.6 mph - N/A   Clear
6:35 AM 78.8 °F - 64.4 °F 61% 29.96 in 10.0 mi WSW 4.6 mph - N/A   Clear
6:55 AM 78.8 °F - 64.4 °F 61% 29.96 in 10.0 mi WSW 3.5 mph - N/A   Clear
7:15 AM 80.6 °F 82.3 °F 64.4 °F 58% 29.96 in 10.0 mi WSW 5.8 mph - N/A   Clear
7:35 AM 82.4 °F 84.6 °F 66.2 °F 58% 29.97 in 10.0 mi WSW 5.8 mph - N/A   Clear
7:55 AM 82.4 °F 84.6 °F 66.2 °F 58% 29.97 in 10.0 mi West 5.8 mph - N/A   Clear
8:35 AM 84.2 °F 86.6 °F 66.2 °F 55% 29.97 in 10.0 mi West 6.9 mph - N/A   Clear
8:55 AM 86.0 °F 89.4 °F 68.0 °F 55% 29.97 in 10.0 mi West 6.9 mph - N/A   Clear
9:15 AM 87.8 °F 90.4 °F 66.2 °F 49% 29.97 in 10.0 mi West 10.4 mph - N/A   Clear
9:35 AM 89.6 °F 92.2 °F 66.2 °F 46% 29.97 in 10.0 mi WNW 6.9 mph - N/A   Clear
9:55 AM 91.4 °F 93.2 °F 64.4 °F 41% 29.97 in 10.0 mi WNW 10.4 mph - N/A   Clear
10:15 AM 91.4 °F 93.2 °F 64.4 °F 41% 29.97 in 10.0 mi WNW 10.4 mph - N/A   Clear
10:35 AM 91.4 °F 93.2 °F 64.4 °F 41% 29.96 in 10.0 mi NNW 8.1 mph - N/A   Clear
10:55 AM 93.2 °F 94.9 °F 64.4 °F 38% 29.96 in 10.0 mi NNW 9.2 mph - N/A   Clear
11:15 AM 93.2 °F 96.2 °F 66.2 °F 41% 29.96 in 10.0 mi NNW 9.2 mph - N/A   Clear
11:35 AM 95.0 °F 98.5 °F 66.2 °F 39% 29.95 in 10.0 mi NW 6.9 mph - N/A   Clear
11:55 AM 96.8 °F 100.7 °F 66.2 °F 37% 29.95 in 10.0 mi NNW 8.1 mph - N/A   Clear
12:35 PM 96.8 °F 100.7 °F 66.2 °F 37% 29.93 in 10.0 mi West 5.8 mph - N/A   Clear
12:55 PM 98.6 °F 101.0 °F 64.4 °F 32% 29.93 in 10.0 mi NW 3.5 mph - N/A   Clear
1:15 PM 98.6 °F 101.0 °F 64.4 °F 32% 29.92 in 10.0 mi NNW 3.5 mph - N/A   Clear
1:35 PM 100.4 °F 104.9 °F 66.2 °F 33% 29.92 in 10.0 mi WNW 6.9 mph - N/A   Clear
2:15 PM 100.4 °F 103.6 °F 64.4 °F 31% 29.91 in 10.0 mi Calm Calm - N/A   Clear
2:55 PM 102.2 °F 106.9 °F 66.2 °F 31% 29.90 in 10.0 mi SW 5.8 mph - N/A   Clear
3:15 PM 102.2 °F 108.4 °F 68.0 °F 33% 29.90 in 10.0 mi WSW 9.2 mph - N/A   Clear
3:35 PM 102.2 °F 106.9 °F 66.2 °F 31% 29.89 in 10.0 mi WSW 10.4 mph - N/A   Clear
3:55 PM 102.2 °F 106.9 °F 66.2 °F 31% 29.88 in 10.0 mi WSW 6.9 mph - N/A   Clear
4:15 PM 102.2 °F 106.9 °F 66.2 °F 31% 29.88 in 10.0 mi WSW 9.2 mph - N/A   Clear
4:35 PM 102.2 °F 106.9 °F 66.2 °F 31% 29.87 in 10.0 mi WSW 8.1 mph - N/A   Clear
4:55 PM 102.2 °F 106.9 °F 66.2 °F 31% 29.87 in 10.0 mi WSW 8.1 mph - N/A   Clear
5:15 PM 102.2 °F 106.9 °F 66.2 °F 31% 29.86 in 10.0 mi West 8.1 mph - N/A   Clear
5:35 PM 100.4 °F 107.8 °F 69.8 °F 37% 29.86 in 10.0 mi SW 6.9 mph - N/A   Clear
5:55 PM 100.4 °F 106.3 °F 68.0 °F 35% 29.85 in 10.0 mi WSW 9.2 mph - N/A   Clear
6:15 PM 98.6 °F 105.5 °F 69.8 °F 39% 29.85 in 10.0 mi SW 10.4 mph - N/A   Clear
6:35 PM 98.6 °F 102.8 °F 66.2 °F 35% 29.85 in 10.0 mi WSW 8.1 mph - N/A   Clear
6:55 PM 96.8 °F 100.7 °F 66.2 °F 37% 29.86 in 10.0 mi WSW 6.9 mph - N/A   Clear
7:15 PM 95.0 °F 98.5 °F 66.2 °F 39% 29.85 in 10.0 mi SW 6.9 mph - N/A   Clear
7:35 PM 93.2 °F 96.2 °F 66.2 °F 41% 29.85 in 9.0 mi SW 5.8 mph - N/A   Clear
7:55 PM 91.4 °F 94.0 °F 66.2 °F 43% 29.86 in 10.0 mi WSW 3.5 mph - N/A   Clear
8:15 PM 89.6 °F 92.2 °F 66.2 °F 46% 29.86 in 10.0 mi SW 3.5 mph - N/A   Clear
8:35 PM 87.8 °F 90.4 °F 66.2 °F 49% 29.86 in 10.0 mi SW 3.5 mph - N/A   Clear
8:55 PM 86.0 °F 88.2 °F 66.2 °F 51% 29.86 in 10.0 mi Calm Calm - N/A   Clear
9:15 PM 84.2 °F 85.6 °F 64.4 °F 51% 29.87 in 10.0 mi Calm Calm - N/A   Clear
9:35 PM 84.2 °F 85.6 °F 64.4 °F 51% 29.87 in 10.0 mi Calm Calm - N/A   Clear
9:55 PM 80.6 °F 82.3 °F 64.4 °F 58% 29.88 in 10.0 mi Calm Calm - N/A   Clear
10:15 PM 80.6 °F 82.3 °F 64.4 °F 58% 29.88 in 10.0 mi Calm Calm - N/A   Clear
10:35 PM 80.6 °F 82.3 °F 64.4 °F 58% 29.88 in 10.0 mi Calm Calm - N/A   Clear
10:55 PM 80.6 °F 82.3 °F 64.4 °F 58% 29.88 in 10.0 mi WSW 3.5 mph - N/A   Clear
11:35 PM 80.6 °F 82.3 °F 64.4 °F 58% 29.89 in 10.0 mi WSW 5.8 mph - N/A   Clear
11:55 PM 80.6 °F 81.8 °F 62.6 °F 54% 29.89 in 10.0 mi WSW 4.6 mph - N/A   Clear